sensor_id;sensor_type;location;lat;lon;timestamp;P1;durP1;ratioP1;P2;durP2;ratioP2
75059;SDS011;63640;59.264;18.116;2023-02-11T00:00:30;5.68;;;1.58;;
75059;SDS011;63640;59.264;18.116;2023-02-11T00:02:56;4.32;;;1.30;;
75059;SDS011;63640;59.264;18.116;2023-02-11T00:05:21;5.72;;;1.80;;
75059;SDS011;63640;59.264;18.116;2023-02-11T00:07:47;9.20;;;1.85;;
75059;SDS011;63640;59.264;18.116;2023-02-11T00:10:15;5.13;;;1.60;;
75059;SDS011;63640;59.264;18.116;2023-02-11T00:12:41;4.85;;;1.80;;
75059;SDS011;63640;59.264;18.116;2023-02-11T00:15:07;6.50;;;1.50;;
75059;SDS011;63640;59.264;18.116;2023-02-11T00:17:34;6.60;;;2.17;;
75059;SDS011;63640;59.264;18.116;2023-02-11T00:19:59;4.20;;;1.63;;
75059;SDS011;63640;59.264;18.116;2023-02-11T00:22:25;7.55;;;2.03;;
75059;SDS011;63640;59.264;18.116;2023-02-11T00:24:54;7.28;;;1.83;;
75059;SDS011;63640;59.264;18.116;2023-02-11T00:27:21;5.75;;;1.92;;
75059;SDS011;63640;59.264;18.116;2023-02-11T00:29:46;8.40;;;1.90;;
75059;SDS011;63640;59.264;18.116;2023-02-11T00:32:12;9.55;;;2.20;;
75059;SDS011;63640;59.264;18.116;2023-02-11T00:34:38;7.00;;;2.13;;
75059;SDS011;63640;59.264;18.116;2023-02-11T00:37:03;7.03;;;1.92;;
75059;SDS011;63640;59.264;18.116;2023-02-11T00:39:29;5.38;;;2.15;;
75059;SDS011;63640;59.264;18.116;2023-02-11T00:41:55;14.63;;;2.33;;
75059;SDS011;63640;59.264;18.116;2023-02-11T00:44:21;8.00;;;2.47;;
75059;SDS011;63640;59.264;18.116;2023-02-11T00:46:47;8.52;;;2.80;;
75059;SDS011;63640;59.264;18.116;2023-02-11T00:49:13;9.52;;;2.78;;
75059;SDS011;63640;59.264;18.116;2023-02-11T00:51:38;6.72;;;2.50;;
75059;SDS011;63640;59.264;18.116;2023-02-11T00:54:04;9.27;;;2.30;;
75059;SDS011;63640;59.264;18.116;2023-02-11T00:56:30;15.68;;;3.28;;
75059;SDS011;63640;59.264;18.116;2023-02-11T00:58:55;9.80;;;3.30;;
75059;SDS011;63640;59.264;18.116;2023-02-11T01:01:21;6.50;;;2.25;;
75059;SDS011;63640;59.264;18.116;2023-02-11T01:03:47;7.45;;;2.50;;
75059;SDS011;63640;59.264;18.116;2023-02-11T01:06:12;7.57;;;2.20;;
75059;SDS011;63640;59.264;18.116;2023-02-11T01:08:38;8.65;;;2.78;;
75059;SDS011;63640;59.264;18.116;2023-02-11T01:11:05;7.95;;;2.65;;
75059;SDS011;63640;59.264;18.116;2023-02-11T01:13:34;10.02;;;2.90;;
75059;SDS011;63640;59.264;18.116;2023-02-11T01:16:01;17.52;;;3.75;;
75059;SDS011;63640;59.264;18.116;2023-02-11T01:18:27;8.90;;;3.08;;
75059;SDS011;63640;59.264;18.116;2023-02-11T01:20:53;7.80;;;2.55;;
75059;SDS011;63640;59.264;18.116;2023-02-11T01:23:19;7.85;;;2.03;;
75059;SDS011;63640;59.264;18.116;2023-02-11T01:25:44;7.40;;;2.50;;
75059;SDS011;63640;59.264;18.116;2023-02-11T01:28:20;9.25;;;2.45;;
75059;SDS011;63640;59.264;18.116;2023-02-11T01:30:47;8.73;;;2.85;;
75059;SDS011;63640;59.264;18.116;2023-02-11T01:33:13;6.85;;;2.55;;
75059;SDS011;63640;59.264;18.116;2023-02-11T01:35:39;8.15;;;2.90;;
75059;SDS011;63640;59.264;18.116;2023-02-11T01:38:05;15.00;;;3.67;;
75059;SDS011;63640;59.264;18.116;2023-02-11T01:40:31;10.18;;;3.42;;
75059;SDS011;63640;59.264;18.116;2023-02-11T01:42:57;12.13;;;3.63;;
75059;SDS011;63640;59.264;18.116;2023-02-11T01:50:42;9.45;;;3.17;;
75059;SDS011;63640;59.264;18.116;2023-02-11T01:53:09;13.90;;;3.58;;
75059;SDS011;63640;59.264;18.116;2023-02-11T01:55:53;7.47;;;2.92;;
75059;SDS011;63640;59.264;18.116;2023-02-11T01:58:38;11.23;;;4.10;;
75059;SDS011;63640;59.264;18.116;2023-02-11T02:01:06;9.32;;;3.67;;
75059;SDS011;63640;59.264;18.116;2023-02-11T02:03:32;9.98;;;3.47;;
75059;SDS011;63640;59.264;18.116;2023-02-11T02:06:24;13.45;;;3.78;;
75059;SDS011;63640;59.264;18.116;2023-02-11T02:09:02;10.05;;;3.35;;
75059;SDS011;63640;59.264;18.116;2023-02-11T02:11:31;7.43;;;2.90;;
75059;SDS011;63640;59.264;18.116;2023-02-11T02:13:56;8.27;;;3.33;;
75059;SDS011;63640;59.264;18.116;2023-02-11T02:16:23;13.32;;;4.15;;
75059;SDS011;63640;59.264;18.116;2023-02-11T02:19:23;9.13;;;2.80;;
75059;SDS011;63640;59.264;18.116;2023-02-11T02:36:22;10.98;;;3.85;;
75059;SDS011;63640;59.264;18.116;2023-02-11T02:41:34;8.82;;;4.15;;
75059;SDS011;63640;59.264;18.116;2023-02-11T02:44:02;8.15;;;3.47;;
75059;SDS011;63640;59.264;18.116;2023-02-11T02:46:31;13.30;;;4.30;;
75059;SDS011;63640;59.264;18.116;2023-02-11T02:48:58;7.75;;;3.33;;
75059;SDS011;63640;59.264;18.116;2023-02-11T02:56:52;10.05;;;3.63;;
75059;SDS011;63640;59.264;18.116;2023-02-11T03:02:05;13.23;;;4.50;;
75059;SDS011;63640;59.264;18.116;2023-02-11T03:12:41;12.88;;;4.85;;
75059;SDS011;63640;59.264;18.116;2023-02-11T03:15:08;11.45;;;4.07;;
75059;SDS011;63640;59.264;18.116;2023-02-11T03:17:34;13.20;;;5.03;;
75059;SDS011;63640;59.264;18.116;2023-02-11T03:20:01;11.32;;;3.92;;
75059;SDS011;63640;59.264;18.116;2023-02-11T03:23:15;11.13;;;3.90;;
75059;SDS011;63640;59.264;18.116;2023-02-11T03:25:14;11.10;;;4.00;;
75059;SDS011;63640;59.264;18.116;2023-02-11T03:27:43;13.98;;;3.47;;
75059;SDS011;63640;59.264;18.116;2023-02-11T03:30:20;10.20;;;3.83;;
75059;SDS011;63640;59.264;18.116;2023-02-11T03:37:53;9.18;;;2.95;;
75059;SDS011;63640;59.264;18.116;2023-02-11T03:40:30;11.10;;;3.17;;
75059;SDS011;63640;59.264;18.116;2023-02-11T03:42:59;8.88;;;3.55;;
75059;SDS011;63640;59.264;18.116;2023-02-11T03:45:27;8.27;;;3.10;;
75059;SDS011;63640;59.264;18.116;2023-02-11T03:48:04;8.82;;;2.72;;
75059;SDS011;63640;59.264;18.116;2023-02-11T03:50:33;6.75;;;2.50;;
75059;SDS011;63640;59.264;18.116;2023-02-11T03:53:00;5.53;;;1.73;;
75059;SDS011;63640;59.264;18.116;2023-02-11T03:55:27;5.20;;;1.35;;
75059;SDS011;63640;59.264;18.116;2023-02-11T03:57:54;5.90;;;1.73;;
75059;SDS011;63640;59.264;18.116;2023-02-11T04:00:20;5.72;;;1.63;;
75059;SDS011;63640;59.264;18.116;2023-02-11T04:02:45;4.38;;;1.30;;
75059;SDS011;63640;59.264;18.116;2023-02-11T04:05:13;3.50;;;1.10;;
75059;SDS011;63640;59.264;18.116;2023-02-11T04:07:40;4.30;;;0.90;;
75059;SDS011;63640;59.264;18.116;2023-02-11T04:10:05;4.82;;;1.10;;
75059;SDS011;63640;59.264;18.116;2023-02-11T04:12:31;3.85;;;1.00;;
75059;SDS011;63640;59.264;18.116;2023-02-11T04:14:57;2.78;;;0.90;;
75059;SDS011;63640;59.264;18.116;2023-02-11T04:17:22;3.00;;;1.05;;
75059;SDS011;63640;59.264;18.116;2023-02-11T04:19:48;2.75;;;0.80;;
75059;SDS011;63640;59.264;18.116;2023-02-11T04:22:14;2.53;;;0.90;;
75059;SDS011;63640;59.264;18.116;2023-02-11T04:24:39;5.63;;;1.20;;
75059;SDS011;63640;59.264;18.116;2023-02-11T04:27:05;3.42;;;1.00;;
75059;SDS011;63640;59.264;18.116;2023-02-11T04:29:30;4.60;;;1.15;;
75059;SDS011;63640;59.264;18.116;2023-02-11T04:31:56;5.75;;;1.20;;
75059;SDS011;63640;59.264;18.116;2023-02-11T04:34:22;2.38;;;0.90;;
75059;SDS011;63640;59.264;18.116;2023-02-11T04:36:48;5.43;;;1.10;;
75059;SDS011;63640;59.264;18.116;2023-02-11T04:39:14;3.63;;;0.90;;
75059;SDS011;63640;59.264;18.116;2023-02-11T04:41:40;4.47;;;0.82;;
75059;SDS011;63640;59.264;18.116;2023-02-11T04:44:05;4.07;;;1.15;;
75059;SDS011;63640;59.264;18.116;2023-02-11T04:46:31;5.18;;;1.00;;
75059;SDS011;63640;59.264;18.116;2023-02-11T04:48:56;3.33;;;1.05;;
75059;SDS011;63640;59.264;18.116;2023-02-11T04:51:22;3.42;;;0.85;;
75059;SDS011;63640;59.264;18.116;2023-02-11T04:53:48;4.18;;;1.23;;
75059;SDS011;63640;59.264;18.116;2023-02-11T04:56:13;2.92;;;1.10;;
75059;SDS011;63640;59.264;18.116;2023-02-11T04:58:39;2.88;;;0.82;;
75059;SDS011;63640;59.264;18.116;2023-02-11T05:01:05;5.32;;;1.15;;
75059;SDS011;63640;59.264;18.116;2023-02-11T05:03:31;4.50;;;1.40;;
75059;SDS011;63640;59.264;18.116;2023-02-11T05:05:57;4.30;;;1.10;;
75059;SDS011;63640;59.264;18.116;2023-02-11T05:08:22;4.72;;;1.10;;
75059;SDS011;63640;59.264;18.116;2023-02-11T05:10:48;3.85;;;1.10;;
75059;SDS011;63640;59.264;18.116;2023-02-11T05:13:14;3.35;;;0.70;;
75059;SDS011;63640;59.264;18.116;2023-02-11T05:15:39;4.80;;;1.02;;
75059;SDS011;63640;59.264;18.116;2023-02-11T05:18:05;3.70;;;0.80;;
75059;SDS011;63640;59.264;18.116;2023-02-11T05:20:30;4.40;;;1.00;;
75059;SDS011;63640;59.264;18.116;2023-02-11T05:22:56;4.50;;;1.13;;
75059;SDS011;63640;59.264;18.116;2023-02-11T05:25:21;5.47;;;1.10;;
75059;SDS011;63640;59.264;18.116;2023-02-11T05:27:47;2.92;;;0.85;;
75059;SDS011;63640;59.264;18.116;2023-02-11T05:30:12;4.20;;;0.80;;
75059;SDS011;63640;59.264;18.116;2023-02-11T05:32:38;4.10;;;1.02;;
75059;SDS011;63640;59.264;18.116;2023-02-11T05:35:04;2.92;;;0.90;;
75059;SDS011;63640;59.264;18.116;2023-02-11T05:37:30;3.00;;;0.90;;
75059;SDS011;63640;59.264;18.116;2023-02-11T05:39:55;2.13;;;0.70;;
75059;SDS011;63640;59.264;18.116;2023-02-11T05:42:21;4.63;;;0.80;;
75059;SDS011;63640;59.264;18.116;2023-02-11T05:44:47;4.70;;;0.90;;
75059;SDS011;63640;59.264;18.116;2023-02-11T05:47:12;1.75;;;0.70;;
75059;SDS011;63640;59.264;18.116;2023-02-11T05:49:38;4.43;;;0.90;;
75059;SDS011;63640;59.264;18.116;2023-02-11T05:52:04;4.10;;;1.13;;
75059;SDS011;63640;59.264;18.116;2023-02-11T05:54:29;4.63;;;0.73;;
75059;SDS011;63640;59.264;18.116;2023-02-11T05:56:55;5.13;;;1.02;;
75059;SDS011;63640;59.264;18.116;2023-02-11T05:59:20;2.95;;;0.70;;
75059;SDS011;63640;59.264;18.116;2023-02-11T06:01:46;3.47;;;0.90;;
75059;SDS011;63640;59.264;18.116;2023-02-11T06:04:11;2.38;;;0.75;;
75059;SDS011;63640;59.264;18.116;2023-02-11T06:06:37;3.85;;;1.27;;
75059;SDS011;63640;59.264;18.116;2023-02-11T06:09:02;4.15;;;1.00;;
75059;SDS011;63640;59.264;18.116;2023-02-11T06:11:28;3.95;;;0.85;;
75059;SDS011;63640;59.264;18.116;2023-02-11T06:13:53;7.30;;;1.10;;
75059;SDS011;63640;59.264;18.116;2023-02-11T06:16:19;5.55;;;0.90;;
75059;SDS011;63640;59.264;18.116;2023-02-11T06:18:45;6.63;;;1.20;;
75059;SDS011;63640;59.264;18.116;2023-02-11T06:21:10;5.07;;;1.00;;
75059;SDS011;63640;59.264;18.116;2023-02-11T06:23:36;4.65;;;1.02;;
75059;SDS011;63640;59.264;18.116;2023-02-11T06:26:03;4.28;;;1.10;;
75059;SDS011;63640;59.264;18.116;2023-02-11T06:28:29;3.35;;;1.00;;
75059;SDS011;63640;59.264;18.116;2023-02-11T06:30:56;5.63;;;1.00;;
75059;SDS011;63640;59.264;18.116;2023-02-11T06:33:21;6.07;;;0.80;;
75059;SDS011;63640;59.264;18.116;2023-02-11T06:35:47;6.80;;;1.10;;
75059;SDS011;63640;59.264;18.116;2023-02-11T06:38:13;4.95;;;1.13;;
75059;SDS011;63640;59.264;18.116;2023-02-11T06:40:38;4.00;;;1.20;;
75059;SDS011;63640;59.264;18.116;2023-02-11T06:43:04;5.40;;;1.45;;
75059;SDS011;63640;59.264;18.116;2023-02-11T06:45:29;3.55;;;1.35;;
75059;SDS011;63640;59.264;18.116;2023-02-11T06:47:55;4.45;;;1.00;;
75059;SDS011;63640;59.264;18.116;2023-02-11T06:50:20;5.57;;;1.00;;
75059;SDS011;63640;59.264;18.116;2023-02-11T06:52:46;3.72;;;0.98;;
75059;SDS011;63640;59.264;18.116;2023-02-11T06:55:12;5.18;;;1.10;;
75059;SDS011;63640;59.264;18.116;2023-02-11T06:57:37;4.55;;;1.10;;
75059;SDS011;63640;59.264;18.116;2023-02-11T07:00:03;3.13;;;0.98;;
75059;SDS011;63640;59.264;18.116;2023-02-11T07:02:29;4.68;;;1.13;;
75059;SDS011;63640;59.264;18.116;2023-02-11T07:04:55;4.43;;;1.45;;
75059;SDS011;63640;59.264;18.116;2023-02-11T07:07:20;8.02;;;1.23;;
75059;SDS011;63640;59.264;18.116;2023-02-11T07:09:46;5.38;;;1.20;;
75059;SDS011;63640;59.264;18.116;2023-02-11T07:12:11;4.30;;;1.10;;
75059;SDS011;63640;59.264;18.116;2023-02-11T07:14:37;5.40;;;0.98;;
75059;SDS011;63640;59.264;18.116;2023-02-11T07:17:03;4.70;;;1.27;;
75059;SDS011;63640;59.264;18.116;2023-02-11T07:19:29;6.40;;;1.85;;
75059;SDS011;63640;59.264;18.116;2023-02-11T07:21:54;8.20;;;1.55;;
75059;SDS011;63640;59.264;18.116;2023-02-11T07:24:20;5.68;;;1.30;;
75059;SDS011;63640;59.264;18.116;2023-02-11T07:26:46;4.55;;;1.70;;
75059;SDS011;63640;59.264;18.116;2023-02-11T07:29:11;6.45;;;1.20;;
75059;SDS011;63640;59.264;18.116;2023-02-11T07:31:37;6.85;;;1.25;;
75059;SDS011;63640;59.264;18.116;2023-02-11T07:34:02;3.47;;;1.05;;
75059;SDS011;63640;59.264;18.116;2023-02-11T07:36:29;4.47;;;1.20;;
75059;SDS011;63640;59.264;18.116;2023-02-11T07:38:56;7.00;;;1.30;;
75059;SDS011;63640;59.264;18.116;2023-02-11T07:41:22;6.95;;;1.45;;
75059;SDS011;63640;59.264;18.116;2023-02-11T07:43:48;6.70;;;1.30;;
75059;SDS011;63640;59.264;18.116;2023-02-11T07:46:24;4.95;;;1.40;;
75059;SDS011;63640;59.264;18.116;2023-02-11T07:48:51;6.95;;;1.60;;
75059;SDS011;63640;59.264;18.116;2023-02-11T07:51:18;4.72;;;1.10;;
75059;SDS011;63640;59.264;18.116;2023-02-11T07:53:45;4.30;;;1.10;;
75059;SDS011;63640;59.264;18.116;2023-02-11T07:56:11;7.40;;;1.80;;
75059;SDS011;63640;59.264;18.116;2023-02-11T07:58:38;4.15;;;1.20;;
75059;SDS011;63640;59.264;18.116;2023-02-11T08:01:07;5.50;;;1.48;;
75059;SDS011;63640;59.264;18.116;2023-02-11T08:03:34;5.55;;;1.63;;
75059;SDS011;63640;59.264;18.116;2023-02-11T08:06:04;7.53;;;1.40;;
75059;SDS011;63640;59.264;18.116;2023-02-11T08:08:30;11.43;;;1.27;;
75059;SDS011;63640;59.264;18.116;2023-02-11T08:10:56;8.68;;;1.60;;
75059;SDS011;63640;59.264;18.116;2023-02-11T08:13:22;5.90;;;1.63;;
75059;SDS011;63640;59.264;18.116;2023-02-11T08:15:47;6.65;;;1.30;;
75059;SDS011;63640;59.264;18.116;2023-02-11T08:18:13;7.05;;;1.73;;
75059;SDS011;63640;59.264;18.116;2023-02-11T08:20:38;6.05;;;1.30;;
75059;SDS011;63640;59.264;18.116;2023-02-11T08:23:05;11.32;;;2.08;;
75059;SDS011;63640;59.264;18.116;2023-02-11T08:25:31;6.85;;;1.70;;
75059;SDS011;63640;59.264;18.116;2023-02-11T08:27:57;6.90;;;1.40;;
75059;SDS011;63640;59.264;18.116;2023-02-11T08:30:23;4.88;;;1.30;;
75059;SDS011;63640;59.264;18.116;2023-02-11T08:32:49;9.10;;;2.10;;
75059;SDS011;63640;59.264;18.116;2023-02-11T08:35:15;7.78;;;1.90;;
75059;SDS011;63640;59.264;18.116;2023-02-11T08:37:40;6.47;;;1.50;;
75059;SDS011;63640;59.264;18.116;2023-02-11T08:40:06;6.82;;;1.80;;
75059;SDS011;63640;59.264;18.116;2023-02-11T08:42:32;5.82;;;1.30;;
75059;SDS011;63640;59.264;18.116;2023-02-11T08:44:58;5.47;;;1.45;;
75059;SDS011;63640;59.264;18.116;2023-02-11T08:47:23;10.15;;;1.55;;
75059;SDS011;63640;59.264;18.116;2023-02-11T08:49:49;5.35;;;1.42;;
75059;SDS011;63640;59.264;18.116;2023-02-11T08:52:14;5.25;;;1.52;;
75059;SDS011;63640;59.264;18.116;2023-02-11T08:54:40;18.02;;;7.53;;
75059;SDS011;63640;59.264;18.116;2023-02-11T08:57:05;8.98;;;4.03;;
75059;SDS011;63640;59.264;18.116;2023-02-11T08:59:31;21.20;;;7.18;;
75059;SDS011;63640;59.264;18.116;2023-02-11T09:01:56;15.23;;;6.60;;
75059;SDS011;63640;59.264;18.116;2023-02-11T09:04:22;22.83;;;8.15;;
75059;SDS011;63640;59.264;18.116;2023-02-11T09:06:47;12.35;;;4.78;;
75059;SDS011;63640;59.264;18.116;2023-02-11T09:09:13;6.50;;;2.92;;
75059;SDS011;63640;59.264;18.116;2023-02-11T09:11:40;5.75;;;2.28;;
75059;SDS011;63640;59.264;18.116;2023-02-11T09:14:06;6.32;;;1.88;;
75059;SDS011;63640;59.264;18.116;2023-02-11T09:16:34;6.85;;;2.53;;
75059;SDS011;63640;59.264;18.116;2023-02-11T09:19:00;6.20;;;1.80;;
75059;SDS011;63640;59.264;18.116;2023-02-11T09:21:27;7.78;;;2.15;;
75059;SDS011;63640;59.264;18.116;2023-02-11T09:23:53;5.85;;;2.08;;
75059;SDS011;63640;59.264;18.116;2023-02-11T09:26:20;21.88;;;11.25;;
75059;SDS011;63640;59.264;18.116;2023-02-11T09:28:48;7.85;;;2.28;;
75059;SDS011;63640;59.264;18.116;2023-02-11T09:31:15;7.95;;;2.08;;
75059;SDS011;63640;59.264;18.116;2023-02-11T09:33:42;5.93;;;1.65;;
75059;SDS011;63640;59.264;18.116;2023-02-11T09:38:42;6.20;;;1.52;;
75059;SDS011;63640;59.264;18.116;2023-02-11T09:47:18;7.18;;;3.00;;
75059;SDS011;63640;59.264;18.116;2023-02-11T09:49:59;10.77;;;2.08;;
75059;SDS011;63640;59.264;18.116;2023-02-11T09:55:01;9.25;;;4.05;;
75059;SDS011;63640;59.264;18.116;2023-02-11T09:57:31;22.33;;;2.13;;
75059;SDS011;63640;59.264;18.116;2023-02-11T09:59:58;6.43;;;1.63;;
75059;SDS011;63640;59.264;18.116;2023-02-11T10:02:52;4.53;;;1.83;;
75059;SDS011;63640;59.264;18.116;2023-02-11T10:18:25;10.77;;;3.25;;
75059;SDS011;63640;59.264;18.116;2023-02-11T10:23:41;8.15;;;2.03;;
75059;SDS011;63640;59.264;18.116;2023-02-11T10:26:13;6.25;;;1.50;;
75059;SDS011;63640;59.264;18.116;2023-02-11T10:28:41;6.72;;;1.90;;
75059;SDS011;63640;59.264;18.116;2023-02-11T10:31:12;9.00;;;1.75;;
75059;SDS011;63640;59.264;18.116;2023-02-11T10:33:42;8.20;;;1.98;;
75059;SDS011;63640;59.264;18.116;2023-02-11T10:36:15;7.38;;;1.80;;
75059;SDS011;63640;59.264;18.116;2023-02-11T10:38:42;5.75;;;1.83;;
75059;SDS011;63640;59.264;18.116;2023-02-11T10:41:21;4.80;;;1.55;;
75059;SDS011;63640;59.264;18.116;2023-02-11T10:43:50;9.30;;;1.67;;
75059;SDS011;63640;59.264;18.116;2023-02-11T10:46:17;7.10;;;1.48;;
75059;SDS011;63640;59.264;18.116;2023-02-11T10:48:50;8.90;;;1.75;;
75059;SDS011;63640;59.264;18.116;2023-02-11T10:51:27;7.13;;;1.73;;
75059;SDS011;63640;59.264;18.116;2023-02-11T10:56:37;6.65;;;2.00;;
75059;SDS011;63640;59.264;18.116;2023-02-11T11:02:16;6.80;;;2.67;;
75059;SDS011;63640;59.264;18.116;2023-02-11T11:04:46;9.98;;;2.60;;
75059;SDS011;63640;59.264;18.116;2023-02-11T11:09:59;9.95;;;2.15;;
75059;SDS011;63640;59.264;18.116;2023-02-11T11:17:46;7.63;;;1.98;;
75059;SDS011;63640;59.264;18.116;2023-02-11T11:22:52;6.47;;;1.52;;
75059;SDS011;63640;59.264;18.116;2023-02-11T11:26:10;12.38;;;1.58;;
75059;SDS011;63640;59.264;18.116;2023-02-11T11:31:15;6.25;;;1.42;;
75059;SDS011;63640;59.264;18.116;2023-02-11T11:33:43;7.22;;;1.50;;
75059;SDS011;63640;59.264;18.116;2023-02-11T11:36:11;5.65;;;1.88;;
75059;SDS011;63640;59.264;18.116;2023-02-11T11:38:57;5.93;;;1.65;;
75059;SDS011;63640;59.264;18.116;2023-02-11T11:41:26;5.43;;;1.48;;
75059;SDS011;63640;59.264;18.116;2023-02-11T11:43:55;8.43;;;1.20;;
75059;SDS011;63640;59.264;18.116;2023-02-11T11:46:29;4.25;;;1.20;;
75059;SDS011;63640;59.264;18.116;2023-02-11T11:48:59;4.60;;;1.10;;
75059;SDS011;63640;59.264;18.116;2023-02-11T11:51:30;4.88;;;1.30;;
75059;SDS011;63640;59.264;18.116;2023-02-11T11:54:01;9.43;;;1.55;;
75059;SDS011;63640;59.264;18.116;2023-02-11T11:56:32;5.55;;;1.33;;
75059;SDS011;63640;59.264;18.116;2023-02-11T11:58:59;6.18;;;1.20;;
75059;SDS011;63640;59.264;18.116;2023-02-11T12:04:11;10.95;;;1.63;;
75059;SDS011;63640;59.264;18.116;2023-02-11T12:07:00;10.52;;;1.70;;
75059;SDS011;63640;59.264;18.116;2023-02-11T12:09:33;10.65;;;1.60;;
75059;SDS011;63640;59.264;18.116;2023-02-11T12:27:05;3.85;;;1.25;;
75059;SDS011;63640;59.264;18.116;2023-02-11T12:35:30;9.55;;;1.48;;
75059;SDS011;63640;59.264;18.116;2023-02-11T12:38:20;4.50;;;1.65;;
75059;SDS011;63640;59.264;18.116;2023-02-11T12:41:13;4.72;;;1.23;;
75059;SDS011;63640;59.264;18.116;2023-02-11T12:43:36;7.57;;;1.50;;
75059;SDS011;63640;59.264;18.116;2023-02-11T12:46:22;10.60;;;1.63;;
75059;SDS011;63640;59.264;18.116;2023-02-11T12:56:43;5.90;;;1.42;;
75059;SDS011;63640;59.264;18.116;2023-02-11T12:59:38;7.90;;;1.30;;
75059;SDS011;63640;59.264;18.116;2023-02-11T13:02:18;6.60;;;1.13;;
75059;SDS011;63640;59.264;18.116;2023-02-11T13:04:52;5.97;;;1.23;;
75059;SDS011;63640;59.264;18.116;2023-02-11T13:07:23;5.18;;;1.20;;
75059;SDS011;63640;59.264;18.116;2023-02-11T13:10:21;4.38;;;1.17;;
75059;SDS011;63640;59.264;18.116;2023-02-11T13:12:49;4.10;;;1.02;;
75059;SDS011;63640;59.264;18.116;2023-02-11T13:15:34;3.58;;;1.02;;
75059;SDS011;63640;59.264;18.116;2023-02-11T13:18:02;9.85;;;1.20;;
75059;SDS011;63640;59.264;18.116;2023-02-11T13:20:43;6.20;;;1.20;;
75059;SDS011;63640;59.264;18.116;2023-02-11T13:23:36;9.63;;;1.40;;
75059;SDS011;63640;59.264;18.116;2023-02-11T13:28:55;8.43;;;1.15;;
75059;SDS011;63640;59.264;18.116;2023-02-11T13:31:25;5.22;;;1.02;;
75059;SDS011;63640;59.264;18.116;2023-02-11T13:33:52;5.45;;;1.10;;
75059;SDS011;63640;59.264;18.116;2023-02-11T13:36:22;7.60;;;1.63;;
75059;SDS011;63640;59.264;18.116;2023-02-11T13:38:56;8.50;;;1.50;;
75059;SDS011;63640;59.264;18.116;2023-02-11T13:41:25;5.20;;;1.30;;
75059;SDS011;63640;59.264;18.116;2023-02-11T13:43:57;5.43;;;1.08;;
75059;SDS011;63640;59.264;18.116;2023-02-11T13:46:24;5.00;;;1.40;;
75059;SDS011;63640;59.264;18.116;2023-02-11T13:48:50;3.15;;;1.00;;
75059;SDS011;63640;59.264;18.116;2023-02-11T13:51:18;7.32;;;1.27;;
75059;SDS011;63640;59.264;18.116;2023-02-11T13:53:58;7.45;;;1.45;;
75059;SDS011;63640;59.264;18.116;2023-02-11T13:56:28;6.60;;;1.30;;
75059;SDS011;63640;59.264;18.116;2023-02-11T13:58:56;7.60;;;1.55;;
75059;SDS011;63640;59.264;18.116;2023-02-11T14:01:39;7.28;;;1.42;;
75059;SDS011;63640;59.264;18.116;2023-02-11T14:04:19;7.25;;;1.52;;
75059;SDS011;63640;59.264;18.116;2023-02-11T14:13:27;8.10;;;1.40;;
75059;SDS011;63640;59.264;18.116;2023-02-11T14:27:00;8.68;;;2.00;;
75059;SDS011;63640;59.264;18.116;2023-02-11T14:37:24;7.43;;;1.65;;
75059;SDS011;63640;59.264;18.116;2023-02-11T14:42:27;4.43;;;1.05;;
75059;SDS011;63640;59.264;18.116;2023-02-11T14:44:55;6.30;;;1.63;;
75059;SDS011;63640;59.264;18.116;2023-02-11T14:47:24;6.65;;;1.30;;
75059;SDS011;63640;59.264;18.116;2023-02-11T14:49:53;7.20;;;1.70;;
75059;SDS011;63640;59.264;18.116;2023-02-11T14:52:29;9.40;;;1.50;;
75059;SDS011;63640;59.264;18.116;2023-02-11T14:55:17;7.03;;;1.23;;
75059;SDS011;63640;59.264;18.116;2023-02-11T15:03:32;8.00;;;1.63;;
75059;SDS011;63640;59.264;18.116;2023-02-11T15:11:30;9.30;;;1.67;;
75059;SDS011;63640;59.264;18.116;2023-02-11T15:13:58;8.70;;;1.23;;
75059;SDS011;63640;59.264;18.116;2023-02-11T15:16:31;6.65;;;1.20;;
75059;SDS011;63640;59.264;18.116;2023-02-11T15:19:00;5.50;;;1.05;;
75059;SDS011;63640;59.264;18.116;2023-02-11T15:21:28;7.97;;;1.40;;
75059;SDS011;63640;59.264;18.116;2023-02-11T15:24:00;13.68;;;2.00;;
75059;SDS011;63640;59.264;18.116;2023-02-11T15:26:30;9.10;;;1.30;;
75059;SDS011;63640;59.264;18.116;2023-02-11T15:28:56;7.28;;;1.70;;
75059;SDS011;63640;59.264;18.116;2023-02-11T15:31:24;5.20;;;1.17;;
75059;SDS011;63640;59.264;18.116;2023-02-11T15:33:50;6.68;;;1.40;;
75059;SDS011;63640;59.264;18.116;2023-02-11T15:36:17;6.32;;;1.55;;
75059;SDS011;63640;59.264;18.116;2023-02-11T15:38:45;7.57;;;1.40;;
75059;SDS011;63640;59.264;18.116;2023-02-11T15:43:59;5.15;;;1.20;;
75059;SDS011;63640;59.264;18.116;2023-02-11T15:46:25;8.15;;;1.65;;
75059;SDS011;63640;59.264;18.116;2023-02-11T15:49:00;5.78;;;1.42;;
75059;SDS011;63640;59.264;18.116;2023-02-11T15:51:27;9.73;;;1.75;;
75059;SDS011;63640;59.264;18.116;2023-02-11T15:54:02;6.68;;;1.15;;
75059;SDS011;63640;59.264;18.116;2023-02-11T15:56:34;5.88;;;1.30;;
75059;SDS011;63640;59.264;18.116;2023-02-11T15:59:47;6.85;;;1.75;;
75059;SDS011;63640;59.264;18.116;2023-02-11T16:01:50;5.68;;;1.58;;
75059;SDS011;63640;59.264;18.116;2023-02-11T16:04:18;7.25;;;1.55;;
75059;SDS011;63640;59.264;18.116;2023-02-11T16:06:45;5.38;;;1.48;;
75059;SDS011;63640;59.264;18.116;2023-02-11T16:14:28;5.40;;;1.95;;
75059;SDS011;63640;59.264;18.116;2023-02-11T16:19:32;8.40;;;2.00;;
75059;SDS011;63640;59.264;18.116;2023-02-11T16:21:59;10.98;;;2.10;;
75059;SDS011;63640;59.264;18.116;2023-02-11T16:24:27;9.00;;;2.45;;
75059;SDS011;63640;59.264;18.116;2023-02-11T16:26:59;9.80;;;2.42;;
75059;SDS011;63640;59.264;18.116;2023-02-11T16:29:29;8.40;;;2.65;;
75059;SDS011;63640;59.264;18.116;2023-02-11T16:34:39;10.23;;;2.92;;
75059;SDS011;63640;59.264;18.116;2023-02-11T16:37:04;9.57;;;2.53;;
75059;SDS011;63640;59.264;18.116;2023-02-11T16:39:30;10.90;;;2.50;;
75059;SDS011;63640;59.264;18.116;2023-02-11T16:41:56;10.98;;;2.63;;
75059;SDS011;63640;59.264;18.116;2023-02-11T16:44:22;9.73;;;3.67;;
75059;SDS011;63640;59.264;18.116;2023-02-11T16:46:48;11.73;;;3.88;;
75059;SDS011;63640;59.264;18.116;2023-02-11T16:49:23;11.52;;;3.53;;
75059;SDS011;63640;59.264;18.116;2023-02-11T16:51:51;10.48;;;2.55;;
75059;SDS011;63640;59.264;18.116;2023-02-11T16:54:20;13.25;;;3.80;;
75059;SDS011;63640;59.264;18.116;2023-02-11T16:56:46;12.43;;;4.82;;
75059;SDS011;63640;59.264;18.116;2023-02-11T16:59:12;21.00;;;7.70;;
75059;SDS011;63640;59.264;18.116;2023-02-11T17:01:41;22.55;;;7.82;;
75059;SDS011;63640;59.264;18.116;2023-02-11T17:04:09;14.38;;;5.20;;
75059;SDS011;63640;59.264;18.116;2023-02-11T17:06:45;11.93;;;3.03;;
75059;SDS011;63640;59.264;18.116;2023-02-11T17:09:24;10.70;;;3.65;;
75059;SDS011;63640;59.264;18.116;2023-02-11T17:11:51;10.15;;;3.47;;
75059;SDS011;63640;59.264;18.116;2023-02-11T17:14:17;12.52;;;3.80;;
75059;SDS011;63640;59.264;18.116;2023-02-11T17:16:43;10.40;;;4.22;;
75059;SDS011;63640;59.264;18.116;2023-02-11T17:19:14;9.05;;;3.95;;
75059;SDS011;63640;59.264;18.116;2023-02-11T17:21:44;8.63;;;2.70;;
75059;SDS011;63640;59.264;18.116;2023-02-11T17:24:11;10.95;;;3.55;;
75059;SDS011;63640;59.264;18.116;2023-02-11T17:26:38;11.02;;;3.20;;
75059;SDS011;63640;59.264;18.116;2023-02-11T17:29:04;12.02;;;2.88;;
75059;SDS011;63640;59.264;18.116;2023-02-11T17:31:30;9.98;;;2.67;;
75059;SDS011;63640;59.264;18.116;2023-02-11T17:33:56;8.60;;;2.50;;
75059;SDS011;63640;59.264;18.116;2023-02-11T17:36:22;7.88;;;2.67;;
75059;SDS011;63640;59.264;18.116;2023-02-11T17:38:48;10.63;;;3.03;;